DAL9963 KATL-KMIA
Flight info
| Callsign | DAL9963 |
|---|---|
| Flight time | N/A |
| Altitude | 37000 |
| Route | BANNG3 LUCKK HONID FROGZ4 |
| Aircraft | A320/M-SDE3FGHIRWY/LB1 |
Departure
| Time | 2026-05-05 11:36 |
|---|---|
| Airport | Hartsfield Jackson Atlanta International Airport (KATL) |
Arrival
| Time | N/A |
|---|---|
| Airport | Miami International Airport (KMIA) |
| Time | Latitude | Longitude | Altitude | Speed | Heading |
|---|---|---|---|---|---|
| 2026-05-05 11:16 | 33.63787 | -84.42981 | 1036 ft | 0 kts | 90° |
| 2026-05-05 11:29 | 33.63787 | -84.43003 | 1035 ft | 4 kts | 91° |
| 2026-05-05 11:29 | 33.63790 | -84.43035 | 1035 ft | 4 kts | 108° |
| 2026-05-05 11:29 | 33.63802 | -84.43061 | 1035 ft | 4 kts | 150° |
| 2026-05-05 11:29 | 33.63814 | -84.43066 | 1035 ft | 0 kts | 181° |
| 2026-05-05 11:31 | 33.63787 | -84.43067 | 1035 ft | 10 kts | 181° |
| 2026-05-05 11:31 | 33.63682 | -84.43045 | 1035 ft | 17 kts | 133° |
| 2026-05-05 11:32 | 33.63665 | -84.42885 | 1035 ft | 25 kts | 89° |
| 2026-05-05 11:32 | 33.63665 | -84.42749 | 1036 ft | 12 kts | 90° |
| 2026-05-05 11:32 | 33.63661 | -84.42637 | 1036 ft | 20 kts | 94° |
| 2026-05-05 11:32 | 33.63656 | -84.42468 | 1036 ft | 22 kts | 89° |
| 2026-05-05 11:33 | 33.63658 | -84.42285 | 1036 ft | 22 kts | 89° |
| 2026-05-05 11:33 | 33.63660 | -84.42103 | 1036 ft | 22 kts | 89° |
| 2026-05-05 11:33 | 33.63652 | -84.41935 | 1035 ft | 22 kts | 90° |
| 2026-05-05 11:33 | 33.63647 | -84.41790 | 1035 ft | 6 kts | 135° |
| 2026-05-05 11:34 | 33.63631 | -84.41774 | 1035 ft | 7 kts | 142° |
| 2026-05-05 11:34 | 33.63543 | -84.41766 | 1035 ft | 19 kts | 186° |
| 2026-05-05 11:34 | 33.63472 | -84.41812 | 1035 ft | 9 kts | 266° |
| 2026-05-05 11:34 | 33.63472 | -84.41815 | 1035 ft | 0 kts | 270° |
| 2026-05-05 11:35 | 33.63472 | -84.41842 | 1036 ft | 16 kts | 270° |
| 2026-05-05 11:35 | 33.63466 | -84.42320 | 1037 ft | 95 kts | 268° |
| 2026-05-05 11:35 | 33.63468 | -84.43365 | 1035 ft | 154 kts | 270° |
| 2026-05-05 11:36 | 33.63471 | -84.44773 | 1404 ft | 172 kts | 270° |
| 2026-05-05 11:36 | 33.63487 | -84.46199 | 2132 ft | 172 kts | 268° |
| 2026-05-05 11:36 | 33.63486 | -84.47641 | 2876 ft | 174 kts | 266° |
| 2026-05-05 11:36 | 33.63473 | -84.49226 | 3095 ft | 209 kts | 266° |
| 2026-05-05 11:37 | 33.63454 | -84.51085 | 3505 ft | 235 kts | 266° |
| 2026-05-05 11:37 | 33.63420 | -84.53134 | 4093 ft | 256 kts | 266° |
| 2026-05-05 11:37 | 33.63371 | -84.55343 | 4800 ft | 272 kts | 266° |
| 2026-05-05 11:37 | 33.63345 | -84.57611 | 5846 ft | 270 kts | 268° |
| 2026-05-05 11:38 | 33.63379 | -84.59863 | 6863 ft | 273 kts | 270° |
| 2026-05-05 11:38 | 33.63436 | -84.62160 | 7756 ft | 276 kts | 267° |
| 2026-05-05 11:38 | 33.63049 | -84.64394 | 8682 ft | 276 kts | 245° |
| 2026-05-05 11:38 | 33.61961 | -84.66282 | 9614 ft | 279 kts | 224° |
| 2026-05-05 11:39 | 33.60309 | -84.67537 | 10406 ft | 287 kts | 200° |
| 2026-05-05 11:39 | 33.58268 | -84.67836 | 10821 ft | 312 kts | 174° |
| 2026-05-05 11:39 | 33.56122 | -84.67062 | 11295 ft | 329 kts | 162° |
| 2026-05-05 11:39 | 33.53947 | -84.66115 | 12041 ft | 335 kts | 162° |
| 2026-05-05 11:40 | 33.51744 | -84.65169 | 12832 ft | 338 kts | 162° |
| 2026-05-05 11:40 | 33.49509 | -84.64222 | 13619 ft | 342 kts | 162° |
| 2026-05-05 11:40 | 33.47249 | -84.63277 | 14319 ft | 347 kts | 163° |
| 2026-05-05 11:40 | 33.44952 | -84.62322 | 14960 ft | 352 kts | 163° |
| 2026-05-05 11:41 | 33.42620 | -84.61357 | 15590 ft | 358 kts | 163° |
| 2026-05-05 11:41 | 33.40248 | -84.60378 | 16228 ft | 363 kts | 163° |
| 2026-05-05 11:41 | 33.37844 | -84.59383 | 16835 ft | 369 kts | 163° |
| 2026-05-05 11:41 | 33.35403 | -84.58369 | 17444 ft | 374 kts | 164° |
| 2026-05-05 11:42 | 33.32928 | -84.57342 | 18051 ft | 380 kts | 164° |
| 2026-05-05 11:42 | 33.30414 | -84.56302 | 18609 ft | 385 kts | 164° |
| 2026-05-05 11:42 | 33.27864 | -84.55247 | 19138 ft | 390 kts | 164° |
| 2026-05-05 11:42 | 33.25285 | -84.54179 | 19688 ft | 394 kts | 165° |
| 2026-05-05 11:43 | 33.22682 | -84.53102 | 20219 ft | 399 kts | 165° |
| 2026-05-05 11:43 | 33.20047 | -84.52012 | 20766 ft | 403 kts | 165° |
| 2026-05-05 11:43 | 33.17387 | -84.50912 | 21300 ft | 407 kts | 165° |
| 2026-05-05 11:43 | 33.14687 | -84.49798 | 21836 ft | 412 kts | 165° |
| 2026-05-05 11:44 | 33.11970 | -84.48678 | 22372 ft | 416 kts | 165° |
| 2026-05-05 11:44 | 33.09214 | -84.47543 | 22905 ft | 420 kts | 165° |
| 2026-05-05 11:44 | 33.06441 | -84.46398 | 23432 ft | 425 kts | 166° |
| 2026-05-05 11:44 | 33.03629 | -84.45237 | 23898 ft | 429 kts | 166° |
| 2026-05-05 11:45 | 33.00787 | -84.44064 | 24260 ft | 435 kts | 166° |
| 2026-05-05 11:45 | 32.97903 | -84.42920 | 24653 ft | 438 kts | 170° |
| 2026-05-05 11:45 | 32.94925 | -84.42217 | 25035 ft | 436 kts | 180° |
| 2026-05-05 11:45 | 32.91900 | -84.42052 | 25414 ft | 435 kts | 186° |
| 2026-05-05 11:46 | 32.88859 | -84.42006 | 25797 ft | 439 kts | 186° |
| 2026-05-05 11:46 | 32.85785 | -84.41953 | 26178 ft | 444 kts | 186° |
| 2026-05-05 11:46 | 32.82688 | -84.41898 | 26566 ft | 448 kts | 186° |
| 2026-05-05 11:46 | 32.79560 | -84.41840 | 26931 ft | 452 kts | 186° |
| 2026-05-05 11:47 | 32.76401 | -84.41777 | 27271 ft | 456 kts | 186° |
| 2026-05-05 11:47 | 32.73214 | -84.41710 | 27606 ft | 460 kts | 186° |
| 2026-05-05 11:47 | 32.70001 | -84.41641 | 27942 ft | 464 kts | 187° |
| 2026-05-05 11:47 | 32.66752 | -84.41576 | 28298 ft | 468 kts | 187° |
| 2026-05-05 11:48 | 32.60187 | -84.41444 | 28968 ft | 476 kts | 187° |
| 2026-05-05 11:48 | 32.56862 | -84.41378 | 29302 ft | 479 kts | 187° |
| 2026-05-05 11:48 | 32.53513 | -84.41309 | 29626 ft | 483 kts | 187° |
| 2026-05-05 11:49 | 32.50145 | -84.41239 | 29944 ft | 487 kts | 187° |
| 2026-05-05 11:49 | 32.46746 | -84.41168 | 30181 ft | 491 kts | 187° |
| 2026-05-05 11:49 | 32.43316 | -84.41097 | 30429 ft | 494 kts | 187° |
| 2026-05-05 11:49 | 32.39869 | -84.41026 | 30682 ft | 497 kts | 187° |
| 2026-05-05 11:50 | 32.36405 | -84.40958 | 30931 ft | 500 kts | 187° |
| 2026-05-05 11:50 | 32.32903 | -84.40893 | 31176 ft | 504 kts | 188° |
| 2026-05-05 11:50 | 32.29389 | -84.40824 | 31414 ft | 507 kts | 188° |
| 2026-05-05 11:50 | 32.25852 | -84.40750 | 31654 ft | 510 kts | 188° |
| 2026-05-05 11:51 | 32.22308 | -84.40675 | 31949 ft | 510 kts | 188° |
| 2026-05-05 11:51 | 32.18758 | -84.40599 | 32309 ft | 510 kts | 188° |
| 2026-05-05 11:51 | 32.15210 | -84.40522 | 32657 ft | 510 kts | 188° |
| 2026-05-05 11:51 | 32.11654 | -84.40449 | 32976 ft | 511 kts | 188° |
| 2026-05-05 11:52 | 32.08091 | -84.40381 | 33289 ft | 512 kts | 188° |
| 2026-05-05 11:52 | 32.04528 | -84.40316 | 33619 ft | 513 kts | 189° |
| 2026-05-05 11:52 | 32.00954 | -84.40248 | 33938 ft | 514 kts | 189° |
| 2026-05-05 11:52 | 31.97378 | -84.40176 | 34230 ft | 515 kts | 189° |
| 2026-05-05 11:53 | 31.93803 | -84.40102 | 34491 ft | 515 kts | 188° |
| 2026-05-05 11:53 | 31.90222 | -84.40028 | 34800 ft | 514 kts | 189° |
| 2026-05-05 11:53 | 31.86643 | -84.39956 | 35099 ft | 513 kts | 189° |
| 2026-05-05 11:53 | 31.83077 | -84.39885 | 35394 ft | 513 kts | 189° |
| 2026-05-05 11:54 | 31.79513 | -84.39813 | 35672 ft | 512 kts | 189° |
| 2026-05-05 11:54 | 31.75950 | -84.39742 | 35950 ft | 512 kts | 189° |
| 2026-05-05 11:54 | 31.72393 | -84.39669 | 36222 ft | 511 kts | 189° |
| 2026-05-05 11:54 | 31.68844 | -84.39597 | 36496 ft | 510 kts | 189° |
| 2026-05-05 11:55 | 31.65278 | -84.39437 | 36716 ft | 517 kts | 184° |
| 2026-05-05 11:55 | 31.61691 | -84.38766 | 36946 ft | 528 kts | 176° |
| 2026-05-05 11:55 | 31.58104 | -84.37849 | 37061 ft | 527 kts | 176° |
| 2026-05-05 11:55 | 31.54526 | -84.36934 | 37091 ft | 524 kts | 176° |
| 2026-05-05 11:56 | 31.47412 | -84.35125 | 37087 ft | 523 kts | 177° |
| 2026-05-05 11:56 | 31.40303 | -84.33334 | 37086 ft | 522 kts | 177° |
| 2026-05-05 11:57 | 31.33208 | -84.31540 | 37080 ft | 522 kts | 177° |
| 2026-05-05 11:57 | 31.26106 | -84.29746 | 37081 ft | 523 kts | 177° |
| 2026-05-05 11:58 | 31.18994 | -84.27962 | 37078 ft | 522 kts | 177° |
| 2026-05-05 11:58 | 31.11899 | -84.26183 | 37081 ft | 522 kts | 177° |
| 2026-05-05 11:59 | 30.94829 | -84.22455 | 37102 ft | 512 kts | 194° |
| 2026-05-05 11:59 | 30.91305 | -84.22271 | 37318 ft | 507 kts | 189° |
| 2026-05-05 11:59 | 30.87785 | -84.22167 | 37039 ft | 503 kts | 190° |
| 2026-05-05 11:59 | 30.84273 | -84.22040 | 37083 ft | 507 kts | 188° |
| 2026-05-05 12:00 | 30.80735 | -84.21416 | 37068 ft | 525 kts | 172° |
| 2026-05-05 12:00 | 30.56226 | -84.09721 | 37126 ft | 526 kts | 177° |
| 2026-05-05 12:00 | 30.52723 | -84.08642 | 37613 ft | 525 kts | 169° |
| 2026-05-05 12:00 | 30.21143 | -83.90778 | 29788 ft | 529 kts | 166° |
| 2026-05-05 12:01 | 30.17563 | -83.89775 | 28669 ft | 514 kts | 176° |
| 2026-05-05 12:01 | 30.14164 | -83.89113 | 29266 ft | 470 kts | 178° |
| 2026-05-05 12:01 | 30.11248 | -83.88547 | 31537 ft | 372 kts | 180° |
| 2026-05-05 12:01 | 30.08982 | -83.88045 | 33524 ft | 300 kts | 185° |
| 2026-05-05 12:02 | 30.07332 | -83.87702 | 32831 ft | 304 kts | 195° |